Time;durP1;ratioP1;P1;durP2;ratioP2;P2;SDS_P1;SDS_P2;PMS_P1;PMS_P2;Temp;Humidity;BMP_temperature;BMP_pressure;BME280_temperature;BME280_humidity;BME280_pressure;Samples;Min_cycle;Max_cycle;Signal;HPM_P1;HPM_P2
2022/11/17 00:01:09;;;;;;;12.32;10.57;;;9.10;99.90;;;;;;4882793;29;20738;-82
2022/11/17 00:03:35;;;;;;;14.63;11.65;;;9.20;99.90;;;;;;4885763;29;20043;-80
2022/11/17 00:06:03;;;;;;;13.75;10.95;;;9.20;99.90;;;;;;4886833;29;20056;-80
2022/11/17 00:08:29;;;;;;;12.98;11.30;;;9.20;99.90;;;;;;4890051;29;20205;-81
2022/11/17 00:10:59;;;;;;;12.57;10.50;;;9.20;99.90;;;;;;4887034;29;20933;-80
2022/11/17 00:16:15;;;;;;;12.27;9.45;;;9.20;99.90;;;;;;4881420;29;20062;-80
2022/11/17 00:21:27;;;;;;;13.60;10.68;;;9.20;99.90;;;;;;4889927;29;20296;-80
2022/11/17 00:23:56;;;;;;;14.23;12.07;;;9.30;99.90;;;;;;4892254;29;20044;-80
2022/11/17 00:26:26;;;;;;;16.27;12.23;;;9.30;99.90;;;;;;4889220;29;20126;-80
2022/11/17 00:29:03;;;;;;;15.52;11.18;;;9.30;99.90;;;;;;4889218;29;20036;-79
2022/11/17 00:34:21;;;;;;;14.18;10.82;;;9.40;99.90;;;;;;4898319;29;20096;-80
2022/11/17 00:36:47;;;;;;;13.30;10.77;;;9.40;99.90;;;;;;4891754;29;20047;-80
2022/11/17 00:39:14;;;;;;;14.73;11.30;;;9.40;99.90;;;;;;4890864;29;20063;-81
2022/11/17 00:41:40;;;;;;;14.40;11.10;;;9.40;99.90;;;;;;4888592;29;20753;-81
2022/11/17 00:44:06;;;;;;;13.07;10.30;;;9.40;99.90;;;;;;4878544;29;20055;-81
2022/11/17 00:46:32;;;;;;;12.55;10.20;;;9.40;99.90;;;;;;4891406;29;20055;-81
2022/11/17 00:48:58;;;;;;;14.88;11.18;;;9.50;99.90;;;;;;4888663;29;20048;-81
2022/11/17 00:51:24;;;;;;;14.13;10.80;;;9.50;99.90;;;;;;4884739;29;20043;-80
2022/11/17 00:53:50;;;;;;;16.58;12.13;;;9.50;99.90;;;;;;4893482;29;23484;-79
2022/11/17 00:56:16;;;;;;;14.10;10.68;;;9.50;99.90;;;;;;4885337;29;20327;-80
2022/11/17 00:58:42;;;;;;;13.57;11.05;;;9.50;99.90;;;;;;4887957;29;20040;-80
2022/11/17 01:01:08;;;;;;;13.95;10.82;;;9.60;99.90;;;;;;4885029;29;20527;-79
2022/11/17 01:03:35;;;;;;;14.93;10.73;;;9.60;99.90;;;;;;4890681;29;20055;-77
2022/11/17 01:06:09;;;;;;;16.33;11.20;;;9.50;99.90;;;;;;4887090;29;20072;-78
2022/11/17 01:08:35;;;;;;;17.63;12.32;;;9.50;99.90;;;;;;4886833;29;20036;-78
2022/11/17 01:11:08;;;;;;;15.93;11.40;;;9.60;99.90;;;;;;4882266;29;20048;-78
2022/11/17 01:13:34;;;;;;;13.13;10.77;;;9.50;99.90;;;;;;4887070;29;20028;-79
2022/11/17 01:16:08;;;;;;;13.80;11.52;;;9.50;99.90;;;;;;4888472;29;20040;-79
2022/11/17 01:18:35;;;;;;;16.17;11.40;;;9.50;99.90;;;;;;4886382;29;20035;-79
2022/11/17 01:21:06;;;;;;;14.25;11.18;;;9.50;99.90;;;;;;4885325;29;20044;-82
2022/11/17 01:23:31;;;;;;;14.73;12.02;;;9.50;99.90;;;;;;4886082;29;20032;-80
2022/11/17 01:26:02;;;;;;;14.77;10.75;;;9.50;99.90;;;;;;4887888;29;21050;-81
2022/11/17 01:28:29;;;;;;;;;;;9.50;99.90;;;;;;4882055;29;20577;-79
2022/11/17 01:31:03;;;;;;;15.65;11.40;;;9.60;99.90;;;;;;4892425;29;19918;-82
2022/11/17 01:33:29;;;;;;;16.90;12.27;;;9.50;99.90;;;;;;4881397;29;20032;-80
2022/11/17 01:35:58;;;;;;;19.27;12.38;;;9.60;99.90;;;;;;4885179;29;20491;-80
2022/11/17 01:38:24;;;;;;;16.63;12.52;;;9.50;99.90;;;;;;4886600;29;20054;-81
2022/11/17 01:40:49;;;;;;;18.58;13.43;;;9.60;99.90;;;;;;4887811;29;20052;-79
2022/11/17 01:43:15;;;;;;;20.23;13.65;;;9.60;99.90;;;;;;4883124;29;20047;-80
2022/11/17 01:45:41;;;;;;;17.98;13.30;;;9.60;99.90;;;;;;4890566;29;20048;-81
2022/11/17 01:48:09;;;;;;;17.35;12.95;;;9.60;99.90;;;;;;4880843;29;20119;-79
2022/11/17 01:50:36;;;;;;;21.40;14.25;;;9.70;99.90;;;;;;4891137;29;20674;-76
2022/11/17 01:53:06;;;;;;;17.88;14.20;;;9.60;99.90;;;;;;4883739;29;20039;-77
2022/11/17 01:55:46;;;;;;;18.80;14.25;;;9.60;99.90;;;;;;4889156;29;20093;-80
2022/11/17 01:58:16;;;;;;;17.42;13.77;;;9.60;99.90;;;;;;4882331;29;20567;-79
2022/11/17 02:00:42;;;;;;;19.63;14.32;;;9.70;99.90;;;;;;4888247;29;20047;-79
2022/11/17 02:03:08;;;;;;;19.20;14.55;;;9.70;99.90;;;;;;4882160;29;20512;-76
2022/11/17 02:05:50;;;;;;;18.38;14.18;;;9.70;99.90;;;;;;4885993;29;20052;-78
2022/11/17 02:08:19;;;;;;;20.23;14.40;;;9.70;99.90;;;;;;4890076;29;20028;-79
2022/11/17 02:10:46;;;;;;;20.38;14.52;;;9.70;99.90;;;;;;4890410;29;20052;-79
2022/11/17 02:13:12;;;;;;;18.10;14.15;;;9.60;99.90;;;;;;4885309;29;20044;-80
2022/11/17 02:15:38;;;;;;;16.10;13.15;;;9.60;99.90;;;;;;4885125;29;20040;-81
2022/11/17 02:18:04;;;;;;;16.48;12.80;;;9.60;99.90;;;;;;4887033;29;20051;-78
2022/11/17 02:20:40;;;;;;;19.17;12.98;;;9.60;99.90;;;;;;4890435;29;20036;-77
2022/11/17 02:23:27;;;;;;;22.67;14.15;;;9.60;99.90;;;;;;4887256;29;20489;-79
2022/11/17 02:26:13;;;;;;;18.70;14.70;;;9.60;99.90;;;;;;4889489;29;20079;-80
2022/11/17 02:28:58;;;;;;;19.63;16.05;;;9.60;99.90;;;;;;4882587;29;20059;-77
2022/11/17 02:31:49;;;;;;;20.83;16.17;;;9.50;99.90;;;;;;4890438;29;20055;-77
2022/11/17 02:34:34;;;;;;;24.30;15.73;;;9.60;99.90;;;;;;4891947;29;20107;-78
2022/11/17 02:37:15;;;;;;;20.45;15.55;;;9.60;99.90;;;;;;4887458;29;20051;-76
2022/11/17 02:39:59;;;;;;;21.00;15.77;;;9.70;99.90;;;;;;4891369;29;20645;-78
2022/11/17 02:45:40;;;;;;;21.27;16.52;;;9.70;99.90;;;;;;4887123;29;20101;-77
2022/11/17 02:48:14;;;;;;;24.88;17.55;;;9.70;99.90;;;;;;4888972;29;20049;-78
2022/11/17 02:50:43;;;;;;;22.45;17.35;;;9.70;99.90;;;;;;4889724;29;20134;-77
2022/11/17 02:53:09;;;;;;;26.73;17.70;;;9.60;99.90;;;;;;4889038;29;20096;-77
2022/11/17 02:55:36;;;;;;;27.05;20.23;;;9.70;99.90;;;;;;4888367;29;20088;-77
2022/11/17 02:58:01;;;;;;;27.05;19.85;;;9.60;99.90;;;;;;4882573;29;20055;-77
2022/11/17 03:00:30;;;;;;;25.63;19.80;;;9.70;99.90;;;;;;4883763;29;20047;-77
2022/11/17 03:03:16;;;;;;;24.52;19.13;;;9.60;99.90;;;;;;4887885;29;20037;-76
2022/11/17 03:06:04;;;;;;;23.20;16.95;;;9.60;99.90;;;;;;4892312;29;20051;-76
2022/11/17 03:08:41;;;;;;;22.85;16.95;;;9.70;99.90;;;;;;4892013;29;20037;-78
2022/11/17 03:11:07;;;;;;;25.58;16.17;;;9.70;99.90;;;;;;4891315;29;20088;-76
2022/11/17 03:13:45;;;;;;;21.98;17.20;;;9.70;99.90;;;;;;4889701;29;20068;-79
2022/11/17 03:16:24;;;;;;;16.00;13.32;;;9.70;99.90;;;;;;4888837;29;20036;-78
2022/11/17 03:18:53;;;;;;;13.05;10.13;;;9.60;99.90;;;;;;4884975;29;20036;-77
2022/11/17 03:21:34;;;;;;;18.00;10.45;;;9.50;99.90;;;;;;4890877;29;20688;-79
2022/11/17 03:24:16;;;;;;;13.98;10.57;;;9.50;99.90;;;;;;4886864;29;20115;-79
2022/11/17 03:26:48;;;;;;;13.80;11.50;;;9.50;99.90;;;;;;4886175;29;20056;-76
2022/11/17 03:29:15;;;;;;;;;;;9.40;99.90;;;;;;4873853;29;20096;-76
2022/11/17 03:31:43;;;;;;;14.07;10.52;;;9.50;99.90;;;;;;4882781;29;19911;-76
2022/11/17 03:34:14;;;;;;;14.93;11.57;;;9.40;99.90;;;;;;4887037;29;20040;-79
2022/11/17 03:36:45;;;;;;;15.85;11.85;;;9.40;99.90;;;;;;4885086;29;20099;-78
2022/11/17 03:39:18;;;;;;;14.02;10.63;;;9.40;99.90;;;;;;4886765;29;20024;-78
2022/11/17 03:41:48;;;;;;;14.20;12.02;;;9.30;99.90;;;;;;4883049;29;20717;-77
2022/11/17 03:44:17;;;;;;;19.40;11.88;;;9.20;99.90;;;;;;4888057;29;20044;-77
2022/11/17 03:46:46;;;;;;;14.05;11.88;;;9.10;99.90;;;;;;4889585;29;20680;-78
2022/11/17 03:49:23;;;;;;;13.93;11.27;;;9.10;99.90;;;;;;4890454;29;20064;-78
2022/11/17 03:51:49;;;;;;;15.45;12.00;;;9.10;99.90;;;;;;4888438;29;20231;-77
2022/11/17 03:54:15;;;;;;;16.67;11.45;;;9.10;99.90;;;;;;4884463;29;20146;-78
2022/11/17 03:56:56;;;;;;;13.77;10.05;;;9.10;99.90;;;;;;4876106;29;20058;-77
2022/11/17 03:59:38;;;;;;;16.73;11.20;;;9.00;99.90;;;;;;4888560;29;20044;-77
2022/11/17 04:02:04;;;;;;;;;;;9.00;99.90;;;;;;4895508;29;20033;-77
2022/11/17 04:05:04;;;;;;;14.65;9.93;;;9.00;99.90;;;;;;4896962;29;19941;-77
2022/11/17 04:07:15;;;;;;;13.93;10.77;;;9.00;99.90;;;;;;4889790;29;20170;-77
2022/11/17 04:09:41;;;;;;;12.93;10.60;;;9.10;99.90;;;;;;4888103;29;20052;-77
2022/11/17 04:17:35;;;;;;;15.23;11.95;;;9.10;99.90;;;;;;4889817;29;20140;-77
2022/11/17 04:20:01;;;;;;;19.05;14.30;;;9.10;99.90;;;;;;4889552;29;20045;-77
2022/11/17 04:22:26;;;;;;;28.33;18.42;;;9.10;99.90;;;;;;4886200;29;20048;-77
2022/11/17 04:24:52;;;;;;;25.20;17.63;;;9.10;99.90;;;;;;4890081;29;20047;-76
2022/11/17 04:30:04;;;;;;;24.30;18.38;;;9.10;99.90;;;;;;4855351;29;20107;-77
2022/11/17 04:32:29;;;;;;;21.23;15.55;;;9.10;99.90;;;;;;4885857;29;20500;-76
2022/11/17 04:34:55;;;;;;;18.92;14.48;;;9.20;99.90;;;;;;4888290;29;20040;-77
2022/11/17 04:37:21;;;;;;;16.63;13.60;;;9.30;99.90;;;;;;4888846;29;20036;-78
2022/11/17 04:39:47;;;;;;;18.25;14.25;;;9.30;99.90;;;;;;4890514;29;20064;-77
2022/11/17 04:42:12;;;;;;;16.33;12.35;;;9.30;99.90;;;;;;4887863;29;20532;-77
2022/11/17 04:44:38;;;;;;;16.45;13.20;;;9.30;99.90;;;;;;4878730;29;20048;-77
2022/11/17 04:47:05;;;;;;;15.23;12.75;;;9.30;99.90;;;;;;4887374;29;20135;-77
2022/11/17 04:49:32;;;;;;;14.85;11.68;;;9.30;99.90;;;;;;4888408;29;20040;-77
2022/11/17 04:51:57;;;;;;;16.02;12.98;;;9.30;99.90;;;;;;4894009;29;20746;-77
2022/11/17 04:54:24;;;;;;;14.32;11.55;;;9.20;99.90;;;;;;4887212;29;20055;-77
2022/11/17 04:56:50;;;;;;;17.60;11.70;;;9.10;99.90;;;;;;4884562;29;20166;-77
2022/11/17 04:59:16;;;;;;;16.67;12.18;;;9.00;99.90;;;;;;4884846;29;20576;-77
2022/11/17 05:01:42;;;;;;;20.73;13.40;;;8.90;99.90;;;;;;4888438;29;20052;-77
2022/11/17 05:04:10;;;;;;;18.83;13.18;;;8.80;99.90;;;;;;4893373;29;20044;-76
2022/11/17 05:06:41;;;;;;;15.90;13.27;;;8.80;99.90;;;;;;4891602;29;20224;-77
2022/11/17 05:09:13;;;;;;;15.88;12.43;;;8.70;99.90;;;;;;4894713;29;20032;-77
2022/11/17 05:14:24;;;;;;;20.25;14.43;;;8.60;99.90;;;;;;4881288;29;20091;-76
2022/11/17 05:17:08;;;;;;;22.33;16.33;;;8.60;99.90;;;;;;4882112;29;20561;-77
2022/11/17 05:19:45;;;;;;;21.58;17.02;;;8.60;99.90;;;;;;4888448;29;20665;-77
2022/11/17 05:24:58;;;;;;;15.18;13.30;;;8.70;99.90;;;;;;4893093;29;21023;-76
2022/11/17 05:27:24;;;;;;;16.95;13.55;;;8.80;99.90;;;;;;4887891;29;20044;-76
2022/11/17 05:29:50;;;;;;;68.30;47.20;;;8.90;99.90;;;;;;4889992;29;20036;-76
2022/11/17 05:32:15;;;;;;;21.40;16.27;;;8.90;99.90;;;;;;4877563;29;20722;-78
2022/11/17 05:34:41;;;;;;;19.48;15.38;;;8.90;99.90;;;;;;4885231;29;20035;-77
2022/11/17 05:37:07;;;;;;;20.73;15.82;;;8.80;99.90;;;;;;4888768;29;20028;-77
2022/11/17 05:39:32;;;;;;;22.25;18.77;;;8.80;99.90;;;;;;4890630;29;20025;-77
2022/11/17 05:41:58;;;;;;;17.80;14.45;;;8.70;99.90;;;;;;4882582;29;20082;-77
2022/11/17 05:44:23;;;;;;;18.42;13.82;;;8.70;99.90;;;;;;4881424;29;21918;-78
2022/11/17 05:46:49;;;;;;;20.20;15.30;;;8.70;99.90;;;;;;4886048;29;20742;-77
2022/11/17 05:49:15;;;;;;;18.80;13.63;;;8.80;99.90;;;;;;4893527;29;20135;-77
2022/11/17 05:51:40;;;;;;;17.17;12.70;;;8.70;99.90;;;;;;4891062;29;20154;-74
2022/11/17 05:54:06;;;;;;;16.48;13.18;;;8.80;99.90;;;;;;4889283;29;20104;-76
2022/11/17 05:56:48;;;;;;;15.75;12.52;;;8.80;99.90;;;;;;4881635;29;21711;-75
2022/11/17 05:59:18;;;;;;;33.42;14.75;;;8.70;99.90;;;;;;4886150;29;20126;-77
2022/11/17 06:01:52;;;;;;;14.30;11.73;;;8.70;99.90;;;;;;4892128;29;20040;-75
2022/11/17 06:04:19;;;;;;;14.00;11.30;;;8.70;99.90;;;;;;4898044;29;20047;-75
2022/11/17 06:06:46;;;;;;;19.73;12.77;;;8.60;99.90;;;;;;4887010;29;20044;-74
2022/11/17 06:09:12;;;;;;;12.77;11.00;;;8.60;99.90;;;;;;4892486;29;20110;-74
2022/11/17 06:11:37;;;;;;;15.35;11.40;;;8.60;99.90;;;;;;4888529;29;20051;-73
2022/11/17 06:14:03;;;;;;;12.82;10.60;;;8.40;99.90;;;;;;4888860;29;20036;-73
2022/11/17 06:16:33;;;;;;;17.70;12.13;;;8.30;99.90;;;;;;4890831;29;20044;-72
2022/11/17 06:19:04;;;;;;;15.05;11.52;;;8.20;99.90;;;;;;4889913;29;20046;-73
2022/11/17 06:21:30;;;;;;;14.30;11.38;;;8.20;99.90;;;;;;4886404;29;20136;-73
2022/11/17 06:23:55;;;;;;;13.30;10.88;;;8.30;99.90;;;;;;4894034;29;21390;-73
2022/11/17 06:26:21;;;;;;;13.85;11.27;;;8.20;99.90;;;;;;4894459;29;20040;-77
2022/11/17 06:28:49;;;;;;;18.17;11.25;;;8.20;99.90;;;;;;4889996;29;20127;-79
2022/11/17 06:31:16;;;;;;;13.65;10.98;;;8.10;99.90;;;;;;4894146;29;20104;-77
2022/11/17 06:33:43;;;;;;;14.30;11.32;;;8.10;99.90;;;;;;4892470;29;20757;-80
2022/11/17 06:36:08;;;;;;;18.15;11.70;;;8.10;99.90;;;;;;4889238;29;20079;-70
2022/11/17 06:38:35;;;;;;;12.85;10.38;;;8.10;99.90;;;;;;4887938;29;20139;-78
2022/11/17 06:41:04;;;;;;;14.38;10.75;;;8.20;99.90;;;;;;4897154;29;20051;-78
2022/11/17 06:43:30;;;;;;;16.10;11.95;;;8.20;99.90;;;;;;4896667;29;20437;-78
2022/11/17 06:46:00;;;;;;;14.73;12.02;;;8.30;99.90;;;;;;4896184;29;20116;-78
2022/11/17 06:48:25;;;;;;;20.30;13.13;;;8.30;99.90;;;;;;4899615;29;20044;-78
2022/11/17 06:50:54;;;;;;;16.83;13.60;;;8.40;99.90;;;;;;4896711;29;20121;-78
2022/11/17 06:53:22;;;;;;;16.08;13.20;;;8.40;99.90;;;;;;4891583;29;20031;-78
2022/11/17 06:56:07;;;;;;;12.98;11.25;;;8.50;99.90;;;;;;4897161;29;20108;-78
2022/11/17 06:58:35;;;;;;;13.55;11.90;;;8.40;99.90;;;;;;4896301;29;20702;-78
2022/11/17 07:01:12;;;;;;;16.02;11.77;;;8.40;99.90;;;;;;4881664;29;20571;-78
2022/11/17 07:03:39;;;;;;;12.23;10.48;;;8.30;99.90;;;;;;4896039;29;20111;-78
2022/11/17 07:06:07;;;;;;;14.23;11.25;;;8.30;99.90;;;;;;4897375;29;20283;-78
2022/11/17 07:08:33;;;;;;;14.57;11.50;;;8.20;99.90;;;;;;4896240;29;21009;-78
2022/11/17 07:11:06;;;;;;;15.32;12.90;;;8.30;99.90;;;;;;4897330;29;20040;-78
2022/11/17 07:13:33;;;;;;;15.93;12.63;;;8.30;99.90;;;;;;4894444;29;20409;-78
2022/11/17 07:16:04;;;;;;;17.83;14.23;;;8.40;99.90;;;;;;4899579;29;20042;-78
2022/11/17 07:18:30;;;;;;;15.43;12.23;;;8.50;99.90;;;;;;4896459;29;20059;-78
2022/11/17 07:21:00;;;;;;;17.92;13.40;;;8.60;99.90;;;;;;4899482;29;20847;-78
2022/11/17 07:23:26;;;;;;;15.93;13.20;;;8.70;99.90;;;;;;4899167;29;20126;-77
2022/11/17 07:25:52;;;;;;;15.63;13.00;;;8.90;99.90;;;;;;4903314;29;20147;-78
2022/11/17 07:28:17;;;;;;;15.70;12.20;;;9.10;99.90;;;;;;4897777;29;20040;-78
2022/11/17 07:30:43;;;;;;;15.90;12.43;;;9.20;99.90;;;;;;4898644;29;20599;-75
2022/11/17 07:33:09;;;;;;;15.73;12.57;;;9.20;99.90;;;;;;4899301;29;20036;-76
2022/11/17 07:35:35;;;;;;;17.10;13.30;;;9.20;99.90;;;;;;4897687;29;20294;-77
2022/11/17 07:38:00;;;;;;;15.52;13.05;;;9.30;99.90;;;;;;4896669;29;20042;-78
2022/11/17 07:40:28;;;;;;;23.83;13.07;;;9.40;99.90;;;;;;4895539;29;20036;-77
2022/11/17 07:42:54;;;;;;;15.75;12.15;;;9.40;99.90;;;;;;4893641;29;20040;-76
2022/11/17 07:45:21;;;;;;;15.10;12.63;;;9.50;99.90;;;;;;4895186;29;20044;-76
2022/11/17 07:47:55;;;;;;;16.55;12.23;;;9.60;99.90;;;;;;4880310;29;20386;-76
2022/11/17 07:50:22;;;;;;;13.65;11.13;;;9.70;99.90;;;;;;4895323;29;20060;-77
2022/11/17 07:52:52;;;;;;;18.52;12.65;;;9.70;99.90;;;;;;4897599;29;20755;-76
2022/11/17 07:55:19;;;;;;;22.63;12.38;;;9.80;99.90;;;;;;4897235;29;20639;-76
2022/11/17 07:57:45;;;;;;;14.60;11.45;;;9.80;99.90;;;;;;4891853;29;20149;-77
2022/11/17 08:00:12;;;;;;;14.93;12.20;;;9.90;99.90;;;;;;4894808;29;20545;-77
2022/11/17 08:02:39;;;;;;;16.38;12.10;;;10.10;99.90;;;;;;4899325;29;20067;-76
2022/11/17 08:05:05;;;;;;;14.95;11.23;;;10.30;99.90;;;;;;4905370;29;20044;-77
2022/11/17 08:07:30;;;;;;;13.60;10.60;;;10.30;99.90;;;;;;4906632;29;20110;-78
2022/11/17 08:09:56;;;;;;;13.80;11.40;;;10.30;99.90;;;;;;4899732;29;20559;-78
2022/11/17 08:12:22;;;;;;;32.25;22.00;;;10.40;99.90;;;;;;4897151;29;20095;-78
2022/11/17 08:14:48;;;;;;;18.88;12.63;;;10.60;99.90;;;;;;4902603;29;20146;-76
2022/11/17 08:17:14;;;;;;;20.17;12.23;;;10.80;99.90;;;;;;4902168;29;20044;-78
2022/11/17 08:19:40;;;;;;;13.38;11.48;;;11.00;99.90;;;;;;4894637;29;20880;-77
2022/11/17 08:22:06;;;;;;;17.45;14.02;;;11.30;99.90;;;;;;4891379;29;20064;-78
2022/11/17 08:24:31;;;;;;;22.00;16.35;;;11.50;99.90;;;;;;4892061;29;20044;-78
2022/11/17 08:26:57;;;;;;;13.85;11.57;;;11.60;99.90;;;;;;4895203;29;20040;-77
2022/11/17 08:29:23;;;;;;;14.43;11.00;;;11.60;99.90;;;;;;4887732;29;20797;-77
2022/11/17 08:31:49;;;;;;;15.50;12.30;;;11.60;99.90;;;;;;4895679;29;20064;-78
2022/11/17 08:34:15;;;;;;;14.10;11.82;;;11.60;99.90;;;;;;4897896;29;20127;-78
2022/11/17 08:36:41;;;;;;;15.50;13.05;;;11.60;99.90;;;;;;4904940;29;20123;-80
2022/11/17 08:39:07;;;;;;;18.17;13.80;;;11.80;99.90;;;;;;4896904;29;20551;-80
2022/11/17 08:41:32;;;;;;;17.83;12.35;;;11.90;99.90;;;;;;4895732;29;20028;-80
2022/11/17 08:43:58;;;;;;;15.18;12.23;;;12.00;99.90;;;;;;4894097;29;20046;-80
2022/11/17 08:46:27;;;;;;;14.93;12.40;;;12.20;99.90;;;;;;4900430;29;20082;-80
2022/11/17 08:48:52;;;;;;;13.00;10.98;;;12.30;99.90;;;;;;4894640;29;20044;-80
2022/11/17 08:51:18;;;;;;;16.00;10.45;;;12.40;99.90;;;;;;4894252;29;20040;-80
2022/11/17 08:53:44;;;;;;;13.48;11.32;;;12.60;99.90;;;;;;4896310;29;20028;-79
2022/11/17 08:56:11;;;;;;;10.18;8.02;;;12.70;99.90;;;;;;4887869;29;20115;-80
2022/11/17 08:58:41;;;;;;;10.27;9.05;;;12.80;99.90;;;;;;4880964;29;20025;-80
2022/11/17 09:01:08;;;;;;;10.60;9.18;;;12.80;99.90;;;;;;4884540;29;20585;-78
2022/11/17 09:03:34;;;;;;;10.10;9.05;;;12.70;99.90;;;;;;4890809;29;20127;-79
2022/11/17 09:06:01;;;;;;;10.07;9.02;;;12.40;99.90;;;;;;4888478;29;20047;-80
2022/11/17 09:08:27;;;;;;;10.93;8.40;;;12.30;99.90;;;;;;4889228;29;20040;-80
2022/11/17 09:10:52;;;;;;;10.30;8.45;;;12.20;99.90;;;;;;4895561;29;20051;-79
2022/11/17 09:13:18;;;;;;;9.90;7.63;;;12.10;99.90;;;;;;4886621;29;20547;-75
2022/11/17 09:15:44;;;;;;;10.15;8.60;;;12.20;99.90;;;;;;4882949;29;20048;-77
2022/11/17 09:18:09;;;;;;;11.20;7.68;;;12.20;99.90;;;;;;4891793;29;20052;-75
2022/11/17 09:20:35;;;;;;;9.82;8.60;;;12.00;99.90;;;;;;4889674;29;20521;-74
2022/11/17 09:23:01;;;;;;;9.00;7.43;;;11.90;99.90;;;;;;4887567;29;20084;-75
2022/11/17 09:25:27;;;;;;;9.38;8.35;;;11.70;99.90;;;;;;4899342;29;20066;-75
2022/11/17 09:27:54;;;;;;;10.75;9.05;;;11.60;99.90;;;;;;4881833;29;20063;-76
2022/11/17 09:30:21;;;;;;;8.63;7.72;;;11.40;99.90;;;;;;4895473;29;20040;-74
2022/11/17 09:32:50;;;;;;;9.50;7.88;;;11.40;99.90;;;;;;4900443;29;20106;-75
2022/11/17 09:35:17;;;;;;;9.35;7.93;;;11.20;99.90;;;;;;4895923;29;20330;-74
2022/11/17 09:37:43;;;;;;;9.68;8.68;;;11.10;99.90;;;;;;4899742;29;20049;-74
2022/11/17 09:40:16;;;;;;;10.60;7.80;;;10.90;99.90;;;;;;4897721;29;20056;-74
2022/11/17 09:42:42;;;;;;;9.35;7.82;;;10.90;99.90;;;;;;4890250;29;20044;-74
2022/11/17 09:45:14;;;;;;;9.63;8.20;;;10.90;99.90;;;;;;4874206;29;20187;-74
2022/11/17 09:47:59;;;;;;;11.68;9.13;;;10.80;99.90;;;;;;4897543;29;20277;-74
2022/11/17 09:50:30;;;;;;;11.07;8.65;;;10.80;99.90;;;;;;4897480;29;20051;-75
2022/11/17 09:53:19;;;;;;;10.20;8.48;;;10.70;99.90;;;;;;4898855;29;20032;-75
2022/11/17 09:55:49;;;;;;;10.23;8.85;;;10.60;99.90;;;;;;4901685;29;20498;-75
2022/11/17 09:58:29;;;;;;;9.93;7.90;;;10.50;99.90;;;;;;4891096;29;20051;-75
2022/11/17 10:00:55;;;;;;;10.55;8.25;;;10.50;99.90;;;;;;4895188;29;20024;-76
2022/11/17 10:03:27;;;;;;;10.25;8.63;;;10.30;99.90;;;;;;4875404;29;20040;-73
2022/11/17 10:05:54;;;;;;;12.85;9.77;;;10.30;99.90;;;;;;4899808;29;20032;-74
2022/11/17 10:08:32;;;;;;;10.20;8.48;;;10.20;99.90;;;;;;4893289;29;20036;-75
2022/11/17 10:10:57;;;;;;;10.63;8.77;;;10.30;99.90;;;;;;4876057;29;20036;-76
2022/11/17 10:13:31;;;;;;;10.00;8.23;;;10.20;99.90;;;;;;4897589;29;20059;-75
2022/11/17 10:16:02;;;;;;;10.30;8.40;;;10.30;99.90;;;;;;4879802;29;22104;-72
2022/11/17 10:18:34;;;;;;;9.13;8.13;;;10.20;99.90;;;;;;4895310;29;20397;-75
2022/11/17 10:21:00;;;;;;;8.85;7.95;;;10.20;99.90;;;;;;4894016;29;20886;-75
2022/11/17 10:23:33;;;;;;;9.82;7.80;;;10.10;99.90;;;;;;4895072;29;20034;-75
2022/11/17 10:25:59;;;;;;;9.93;8.38;;;10.10;99.90;;;;;;4891341;29;20345;-74
2022/11/17 10:28:29;;;;;;;11.35;8.57;;;10.20;99.90;;;;;;4896223;29;20568;-75
2022/11/17 10:30:59;;;;;;;9.10;7.95;;;10.20;99.90;;;;;;4896524;29;20036;-75
2022/11/17 10:33:54;;;;;;;9.45;8.32;;;10.10;99.90;;;;;;4898939;29;20043;-74
2022/11/17 10:36:29;;;;;;;9.18;7.78;;;10.10;99.90;;;;;;4882498;29;20040;-76
2022/11/17 10:38:57;;;;;;;8.98;7.63;;;10.10;99.90;;;;;;4899651;29;20646;-75
2022/11/17 10:41:26;;;;;;;8.73;7.18;;;10.10;99.90;;;;;;4895654;29;20048;-74
2022/11/17 10:44:04;;;;;;;11.15;7.55;;;10.10;99.90;;;;;;4885511;29;20040;-73
2022/11/17 10:46:30;;;;;;;9.63;7.80;;;10.20;99.90;;;;;;4886537;29;20040;-73
2022/11/17 10:49:00;;;;;;;8.85;7.57;;;10.20;99.90;;;;;;4900075;29;20132;-74
2022/11/17 10:51:27;;;;;;;8.68;6.85;;;10.20;99.90;;;;;;4898073;29;20044;-76
2022/11/17 10:54:20;;;;;;;7.68;6.60;;;10.20;99.90;;;;;;4900436;29;20449;-74
2022/11/17 10:56:54;;;;;;;9.93;7.65;;;10.30;99.90;;;;;;4895737;29;20109;-75
2022/11/17 10:59:32;;;;;;;6.93;6.18;;;10.40;99.90;;;;;;4900046;29;20119;-74
2022/11/17 11:02:17;;;;;;;8.20;6.80;;;10.40;99.90;;;;;;4899544;29;20043;-74
2022/11/17 11:04:43;;;;;;;9.55;7.50;;;10.30;99.90;;;;;;4899102;29;20038;-82
2022/11/17 11:07:21;;;;;;;8.27;7.25;;;10.20;99.90;;;;;;4901595;29;20048;-76
2022/11/17 11:10:06;;;;;;;8.77;7.05;;;10.20;99.90;;;;;;4897906;29;20036;-83
2022/11/17 11:13:09;;;;;;;7.90;6.70;;;10.20;99.90;;;;;;4900843;29;20043;-78
2022/11/17 11:15:35;;;;;;;7.80;6.45;;;10.20;99.90;;;;;;4879648;29;20818;-80
2022/11/17 11:18:11;;;;;;;6.75;6.10;;;10.20;99.90;;;;;;4897444;29;20032;-82
2022/11/17 11:21:19;;;;;;;6.57;5.88;;;10.20;99.90;;;;;;4892828;29;20056;-80
2022/11/17 11:24:03;;;;;;;6.45;5.68;;;10.30;99.90;;;;;;4889402;29;20063;-79
2022/11/17 11:26:41;;;;;;;7.07;5.38;;;10.30;99.90;;;;;;4886552;29;20614;-77
2022/11/17 11:29:09;;;;;;;7.03;6.28;;;10.30;99.90;;;;;;4896400;29;20031;-80
2022/11/17 11:31:48;;;;;;;6.78;5.97;;;10.20;99.90;;;;;;4904065;29;20056;-78
2022/11/17 11:34:35;;;;;;;8.27;6.13;;;10.20;99.90;;;;;;4900792;29;20123;-79
2022/11/17 11:37:15;;;;;;;7.40;6.28;;;10.30;99.90;;;;;;4901384;29;20144;-76
2022/11/17 11:39:49;;;;;;;8.20;5.97;;;10.30;99.90;;;;;;4900991;29;20115;-80
2022/11/17 11:42:57;;;;;;;7.32;6.15;;;10.30;99.90;;;;;;4907043;29;20107;-79
2022/11/17 11:45:26;;;;;;;7.35;6.43;;;10.40;99.90;;;;;;4859285;29;20600;-80
2022/11/17 11:48:24;;;;;;;8.70;6.63;;;10.60;99.90;;;;;;4895819;29;20055;-80
2022/11/17 11:51:09;;;;;;;9.43;6.93;;;10.70;99.90;;;;;;4909552;29;20032;-80
2022/11/17 11:53:54;;;;;;;7.05;6.00;;;10.80;99.90;;;;;;4907716;29;20635;-79
2022/11/17 11:56:20;;;;;;;9.10;6.30;;;10.90;99.90;;;;;;4910709;29;20042;-79
2022/11/17 11:59:03;;;;;;;7.07;6.28;;;10.80;99.90;;;;;;4906010;29;20108;-79
2022/11/17 12:02:03;;;;;;;7.20;6.38;;;10.70;99.90;;;;;;4906350;29;20036;-79
2022/11/17 12:04:46;;;;;;;7.97;6.55;;;10.70;99.90;;;;;;4897260;29;20192;-79
2022/11/17 12:07:43;;;;;;;8.23;6.65;;;10.70;99.90;;;;;;4904092;29;20769;-79
2022/11/17 12:10:33;;;;;;;10.20;7.82;;;10.70;99.90;;;;;;4890501;29;20024;-79
2022/11/17 12:12:59;;;;;;;7.28;6.47;;;10.60;99.90;;;;;;4901593;29;20977;-79
2022/11/17 12:15:25;;;;;;;8.48;7.30;;;10.60;99.90;;;;;;4907934;29;20040;-79
2022/11/17 12:17:55;;;;;;;8.65;7.47;;;10.60;99.90;;;;;;4902726;29;20040;-79
2022/11/17 12:20:30;;;;;;;11.10;8.82;;;10.60;99.90;;;;;;4902677;29;20039;-79
2022/11/17 12:23:17;;;;;;;11.55;9.68;;;10.70;99.90;;;;;;4889025;29;20048;-79
2022/11/17 12:25:48;;;;;;;11.00;9.10;;;10.70;99.90;;;;;;4895482;29;20134;-79
2022/11/17 12:28:37;;;;;;;15.55;10.85;;;10.70;99.90;;;;;;4903298;29;20414;-77
2022/11/17 12:31:04;;;;;;;12.90;9.82;;;10.60;99.90;;;;;;4892209;29;20485;-78
2022/11/17 12:33:52;;;;;;;12.45;9.80;;;10.50;99.90;;;;;;4886828;29;20293;-78
2022/11/17 12:36:25;;;;;;;13.00;10.18;;;10.40;99.90;;;;;;4907199;29;20028;-79
2022/11/17 12:38:52;;;;;;;15.30;10.25;;;10.40;99.90;;;;;;4901432;29;20111;-78
2022/11/17 12:42:02;;;;;;;13.32;10.40;;;10.30;99.90;;;;;;4899525;29;20052;-78
2022/11/17 12:44:31;;;;;;;11.48;8.73;;;10.30;99.90;;;;;;4886338;29;20048;-78
2022/11/17 12:47:15;;;;;;;12.02;9.25;;;10.30;99.90;;;;;;4895773;29;20056;-78
2022/11/17 12:50:10;;;;;;;12.13;9.73;;;10.40;99.90;;;;;;4900640;29;20036;-78
2022/11/17 12:53:10;;;;;;;11.05;9.23;;;10.50;99.90;;;;;;4903392;29;20072;-79
2022/11/17 12:56:17;;;;;;;11.38;8.88;;;10.70;99.90;;;;;;4890656;29;20688;-77
2022/11/17 12:58:58;;;;;;;12.52;8.57;;;11.00;99.90;;;;;;4897511;29;25293;-81
2022/11/17 13:01:46;;;;;;;12.53;8.80;;;11.20;99.90;;;;;;4897526;29;20087;-79
2022/11/17 13:04:20;;;;;;;10.90;7.97;;;11.30;99.90;;;;;;4888172;29;20062;-78
2022/11/17 13:07:04;;;;;;;7.85;6.85;;;11.40;99.90;;;;;;4895078;29;20051;-78
2022/11/17 13:09:32;;;;;;;7.30;6.35;;;11.40;99.90;;;;;;4896471;29;20039;-78
2022/11/17 13:12:03;;;;;;;7.65;6.32;;;11.30;99.90;;;;;;4887209;29;20051;-78
2022/11/17 13:14:34;;;;;;;6.75;5.65;;;11.50;99.90;;;;;;4899630;29;20091;-79
2022/11/17 13:17:01;;;;;;;6.57;5.65;;;11.60;99.90;;;;;;4888587;29;20502;-78
2022/11/17 13:19:33;;;;;;;7.57;6.20;;;11.70;99.90;;;;;;4896910;29;20036;-79
2022/11/17 13:22:05;;;;;;;6.28;5.35;;;11.90;99.90;;;;;;4894790;29;20059;-80
2022/11/17 13:24:33;;;;;;;9.60;5.68;;;12.00;99.90;;;;;;4893406;29;20040;-78